sensor_id;sensor_type;location;lat;lon;timestamp;pressure;altitude;pressure_sealevel;temperature;humidity
72548;BME280;60570;50.848;6.776;2023-07-28T00:00:35;99563.44;;;18.70;70.70
72548;BME280;60570;50.848;6.776;2023-07-28T00:01:36;99564.25;;;18.70;70.66
72548;BME280;60570;50.848;6.776;2023-07-28T00:02:37;99558.63;;;18.70;70.82
72548;BME280;60570;50.848;6.776;2023-07-28T00:03:38;99564.25;;;18.70;70.68
72548;BME280;60570;50.848;6.776;2023-07-28T00:04:41;99558.63;;;18.70;71.00
72548;BME280;60570;50.848;6.776;2023-07-28T00:05:41;99559.81;;;18.69;70.92
72548;BME280;60570;50.848;6.776;2023-07-28T00:06:43;99559.03;;;18.69;70.40
72548;BME280;60570;50.848;6.776;2023-07-28T00:07:43;99553.41;;;18.69;70.99
72548;BME280;60570;50.848;6.776;2023-07-28T00:08:45;99560.63;;;18.70;70.87
72548;BME280;60570;50.848;6.776;2023-07-28T00:09:45;99565.44;;;18.69;70.74
72548;BME280;60570;50.848;6.776;2023-07-28T00:10:47;99563.44;;;18.70;70.44
72548;BME280;60570;50.848;6.776;2023-07-28T00:11:47;99563.81;;;18.72;70.67
72548;BME280;60570;50.848;6.776;2023-07-28T00:12:49;99569.06;;;18.70;70.47
72548;BME280;60570;50.848;6.776;2023-07-28T00:13:50;99566.25;;;18.70;70.80
72548;BME280;60570;50.848;6.776;2023-07-28T00:14:51;99563.44;;;18.70;70.78
72548;BME280;60570;50.848;6.776;2023-07-28T00:15:52;99567.06;;;18.70;70.92
72548;BME280;60570;50.848;6.776;2023-07-28T00:16:53;99566.25;;;18.70;70.56
72548;BME280;60570;50.848;6.776;2023-07-28T00:17:54;99561.03;;;18.68;70.45
72548;BME280;60570;50.848;6.776;2023-07-28T00:18:56;99567.47;;;18.69;70.84
72548;BME280;60570;50.848;6.776;2023-07-28T00:19:58;99573.09;;;18.69;70.61
72548;BME280;60570;50.848;6.776;2023-07-28T00:20:59;99566.25;;;18.70;70.60
72548;BME280;60570;50.848;6.776;2023-07-28T00:22:00;99569.50;;;18.68;70.53
72548;BME280;60570;50.848;6.776;2023-07-28T00:23:01;99564.66;;;18.69;70.46
72548;BME280;60570;50.848;6.776;2023-07-28T00:24:02;99570.28;;;18.69;70.41
72548;BME280;60570;50.848;6.776;2023-07-28T00:25:04;99564.66;;;18.69;70.33
72548;BME280;60570;50.848;6.776;2023-07-28T00:26:05;99564.66;;;18.69;70.41
72548;BME280;60570;50.848;6.776;2023-07-28T00:27:07;99569.50;;;18.68;70.66
72548;BME280;60570;50.848;6.776;2023-07-28T00:28:07;99572.31;;;18.68;70.36
72548;BME280;60570;50.848;6.776;2023-07-28T00:29:09;99563.06;;;18.68;70.55
72548;BME280;60570;50.848;6.776;2023-07-28T00:30:10;99563.84;;;18.68;70.38
72548;BME280;60570;50.848;6.776;2023-07-28T00:31:11;99573.09;;;18.69;70.50
72548;BME280;60570;50.848;6.776;2023-07-28T00:32:13;99564.66;;;18.69;70.69
72548;BME280;60570;50.848;6.776;2023-07-28T00:33:13;99569.88;;;18.70;70.39
72548;BME280;60570;50.848;6.776;2023-07-28T00:34:15;99565.44;;;18.69;70.73
72548;BME280;60570;50.848;6.776;2023-07-28T00:35:17;99569.50;;;18.68;70.54
72548;BME280;60570;50.848;6.776;2023-07-28T00:36:18;99567.88;;;18.67;70.66
72548;BME280;60570;50.848;6.776;2023-07-28T00:37:19;99570.69;;;18.67;70.55
72548;BME280;60570;50.848;6.776;2023-07-28T00:38:20;99559.44;;;18.67;70.48
72548;BME280;60570;50.848;6.776;2023-07-28T00:39:21;99568.69;;;18.68;70.56
72548;BME280;60570;50.848;6.776;2023-07-28T00:40:23;99563.84;;;18.68;70.53
72548;BME280;60570;50.848;6.776;2023-07-28T00:41:23;99558.66;;;18.67;70.59
72548;BME280;60570;50.848;6.776;2023-07-28T00:42:25;99564.28;;;18.67;70.35
72548;BME280;60570;50.848;6.776;2023-07-28T00:43:26;99562.66;;;18.66;70.51
72548;BME280;60570;50.848;6.776;2023-07-28T00:44:27;99560.25;;;18.68;70.05
72548;BME280;60570;50.848;6.776;2023-07-28T00:45:28;99557.41;;;18.68;70.56
72548;BME280;60570;50.848;6.776;2023-07-28T00:46:30;99559.44;;;18.67;70.48
72548;BME280;60570;50.848;6.776;2023-07-28T00:47:31;99552.22;;;18.66;70.30
72548;BME280;60570;50.848;6.776;2023-07-28T00:48:31;99553.03;;;18.67;70.54
72548;BME280;60570;50.848;6.776;2023-07-28T00:49:33;99557.41;;;18.68;70.11
72548;BME280;60570;50.848;6.776;2023-07-28T00:50:35;99555.41;;;18.68;70.31
72548;BME280;60570;50.848;6.776;2023-07-28T00:51:37;99550.22;;;18.67;70.38
72548;BME280;60570;50.848;6.776;2023-07-28T00:52:37;99557.41;;;18.68;70.40
72548;BME280;60570;50.848;6.776;2023-07-28T00:53:39;99551.00;;;18.67;70.15
72548;BME280;60570;50.848;6.776;2023-07-28T00:54:39;99554.59;;;18.68;70.17
72548;BME280;60570;50.848;6.776;2023-07-28T00:55:41;99556.22;;;18.69;70.45
72548;BME280;60570;50.848;6.776;2023-07-28T00:56:42;99553.41;;;18.69;70.31
72548;BME280;60570;50.848;6.776;2023-07-28T00:57:43;99557.41;;;18.68;70.48
72548;BME280;60570;50.848;6.776;2023-07-28T00:58:44;99553.81;;;18.67;70.21
72548;BME280;60570;50.848;6.776;2023-07-28T00:59:45;99557.84;;;18.66;70.45
72548;BME280;60570;50.848;6.776;2023-07-28T01:00:46;99559.03;;;18.65;70.68
72548;BME280;60570;50.848;6.776;2023-07-28T01:01:48;99560.66;;;18.66;70.44
72548;BME280;60570;50.848;6.776;2023-07-28T01:02:48;99559.84;;;18.66;70.44
72548;BME280;60570;50.848;6.776;2023-07-28T01:03:50;99559.84;;;18.66;70.74
72548;BME280;60570;50.848;6.776;2023-07-28T01:04:51;99563.09;;;18.64;70.56
72548;BME280;60570;50.848;6.776;2023-07-28T01:05:55;99557.47;;;18.64;70.43
72548;BME280;60570;50.848;6.776;2023-07-28T01:07:00;99551.41;;;18.66;70.54
72548;BME280;60570;50.848;6.776;2023-07-28T01:08:06;99550.59;;;18.65;70.60
72548;BME280;60570;50.848;6.776;2023-07-28T01:09:09;99550.59;;;18.65;70.57
72548;BME280;60570;50.848;6.776;2023-07-28T01:10:17;99548.59;;;18.66;70.71
72548;BME280;60570;50.848;6.776;2023-07-28T01:11:18;99542.16;;;18.65;70.50
72548;BME280;60570;50.848;6.776;2023-07-28T01:12:20;99552.22;;;18.66;70.54
72548;BME280;60570;50.848;6.776;2023-07-28T01:13:21;99543.34;;;18.68;70.43
72548;BME280;60570;50.848;6.776;2023-07-28T01:14:22;99550.59;;;18.65;70.42
72548;BME280;60570;50.848;6.776;2023-07-28T01:15:23;99549.41;;;18.66;70.40
72548;BME280;60570;50.848;6.776;2023-07-28T01:16:25;99560.25;;;18.68;70.34
72548;BME280;60570;50.848;6.776;2023-07-28T01:17:26;99548.97;;;18.68;70.67
72548;BME280;60570;50.848;6.776;2023-07-28T01:18:27;99548.97;;;18.68;70.30
72548;BME280;60570;50.848;6.776;2023-07-28T01:19:28;99550.22;;;18.67;70.33
72548;BME280;60570;50.848;6.776;2023-07-28T01:20:31;99557.41;;;18.68;70.54
72548;BME280;60570;50.848;6.776;2023-07-28T01:21:35;99550.22;;;18.67;70.36
72548;BME280;60570;50.848;6.776;2023-07-28T01:22:47;99545.78;;;18.66;70.59
72548;BME280;60570;50.848;6.776;2023-07-28T01:23:52;99551.41;;;18.66;70.67
72548;BME280;60570;50.848;6.776;2023-07-28T01:25:01;99551.41;;;18.66;70.56
72548;BME280;60570;50.848;6.776;2023-07-28T01:26:08;99550.59;;;18.65;70.57
72548;BME280;60570;50.848;6.776;2023-07-28T01:27:11;99556.22;;;18.65;70.65
72548;BME280;60570;50.848;6.776;2023-07-28T01:28:11;99547.78;;;18.65;70.56
72548;BME280;60570;50.848;6.776;2023-07-28T01:29:13;99548.59;;;18.66;70.45
72548;BME280;60570;50.848;6.776;2023-07-28T01:30:15;99540.97;;;18.66;70.38
72548;BME280;60570;50.848;6.776;2023-07-28T01:31:16;99542.97;;;18.66;70.41
72548;BME280;60570;50.848;6.776;2023-07-28T01:32:18;99548.59;;;18.66;70.73
72548;BME280;60570;50.848;6.776;2023-07-28T01:33:18;99552.22;;;18.66;70.66
72548;BME280;60570;50.848;6.776;2023-07-28T01:34:20;99558.66;;;18.67;70.23
72548;BME280;60570;50.848;6.776;2023-07-28T01:35:21;99547.41;;;18.67;70.46
72548;BME280;60570;50.848;6.776;2023-07-28T01:36:22;99543.78;;;18.66;70.47
72548;BME280;60570;50.848;6.776;2023-07-28T01:37:23;99542.97;;;18.66;70.69
72548;BME280;60570;50.848;6.776;2023-07-28T01:38:24;99553.81;;;18.67;70.52
72548;BME280;60570;50.848;6.776;2023-07-28T01:39:25;99544.97;;;18.65;70.46
72548;BME280;60570;50.848;6.776;2023-07-28T01:40:26;99548.22;;;18.64;70.47
72548;BME280;60570;50.848;6.776;2023-07-28T01:41:27;99543.38;;;18.64;70.52
72548;BME280;60570;50.848;6.776;2023-07-28T01:42:30;99541.38;;;18.65;70.53
72548;BME280;60570;50.848;6.776;2023-07-28T01:43:30;99544.59;;;18.63;70.81
72548;BME280;60570;50.848;6.776;2023-07-28T01:44:32;99549.81;;;18.65;70.46
72548;BME280;60570;50.848;6.776;2023-07-28T01:45:32;99541.38;;;18.65;70.61
72548;BME280;60570;50.848;6.776;2023-07-28T01:46:34;99547.41;;;18.63;70.79
72548;BME280;60570;50.848;6.776;2023-07-28T01:47:35;99548.59;;;18.66;70.68
72548;BME280;60570;50.848;6.776;2023-07-28T01:48:36;99549.00;;;18.64;70.55
72548;BME280;60570;50.848;6.776;2023-07-28T01:49:37;99547.41;;;18.63;70.50
72548;BME280;60570;50.848;6.776;2023-07-28T01:50:38;99548.22;;;18.64;70.80
72548;BME280;60570;50.848;6.776;2023-07-28T01:51:39;99544.97;;;18.65;70.68
72548;BME280;60570;50.848;6.776;2023-07-28T01:52:40;99550.22;;;18.63;70.67
72548;BME280;60570;50.848;6.776;2023-07-28T01:53:41;99545.41;;;18.64;70.69
72548;BME280;60570;50.848;6.776;2023-07-28T01:54:42;99540.56;;;18.64;70.47
72548;BME280;60570;50.848;6.776;2023-07-28T01:55:43;99530.50;;;18.63;70.42
72548;BME280;60570;50.848;6.776;2023-07-28T01:56:45;99543.38;;;18.64;70.63
72548;BME280;60570;50.848;6.776;2023-07-28T01:57:54;99546.59;;;18.66;70.35
72548;BME280;60570;50.848;6.776;2023-07-28T01:58:55;99542.16;;;18.65;70.63
72548;BME280;60570;50.848;6.776;2023-07-28T01:59:56;99542.97;;;18.66;70.37
72548;BME280;60570;50.848;6.776;2023-07-28T02:00:57;99538.97;;;18.67;70.38
72548;BME280;60570;50.848;6.776;2023-07-28T02:01:58;99540.16;;;18.66;70.68
72548;BME280;60570;50.848;6.776;2023-07-28T02:02:59;99538.56;;;18.65;70.42
72548;BME280;60570;50.848;6.776;2023-07-28T02:04:02;99536.94;;;18.64;70.86
72548;BME280;60570;50.848;6.776;2023-07-28T02:05:03;99540.56;;;18.64;70.49
72548;BME280;60570;50.848;6.776;2023-07-28T02:06:04;99542.16;;;18.65;70.37
72548;BME280;60570;50.848;6.776;2023-07-28T02:07:05;99538.56;;;18.65;70.50
72548;BME280;60570;50.848;6.776;2023-07-28T02:08:06;99547.78;;;18.65;70.42
72548;BME280;60570;50.848;6.776;2023-07-28T02:09:07;99553.41;;;18.65;70.63
72548;BME280;60570;50.848;6.776;2023-07-28T02:10:08;99547.00;;;18.65;70.63
72548;BME280;60570;50.848;6.776;2023-07-28T02:11:10;99542.56;;;18.64;70.64
72548;BME280;60570;50.848;6.776;2023-07-28T02:12:11;99543.38;;;18.64;70.70
72548;BME280;60570;50.848;6.776;2023-07-28T02:13:13;99549.00;;;18.64;70.56
72548;BME280;60570;50.848;6.776;2023-07-28T02:14:15;99540.56;;;18.64;70.58
72548;BME280;60570;50.848;6.776;2023-07-28T02:15:16;99542.56;;;18.64;70.62
72548;BME280;60570;50.848;6.776;2023-07-28T02:16:17;99536.56;;;18.62;70.65
72548;BME280;60570;50.848;6.776;2023-07-28T02:17:19;99534.56;;;18.62;70.66
72548;BME280;60570;50.848;6.776;2023-07-28T02:18:20;99547.00;;;18.65;70.28
72548;BME280;60570;50.848;6.776;2023-07-28T02:19:21;99541.78;;;18.63;70.26
72548;BME280;60570;50.848;6.776;2023-07-28T02:20:22;99538.97;;;18.63;70.66
72548;BME280;60570;50.848;6.776;2023-07-28T02:21:23;99532.56;;;18.63;70.70
72548;BME280;60570;50.848;6.776;2023-07-28T02:22:24;99541.00;;;18.63;70.48
72548;BME280;60570;50.848;6.776;2023-07-28T02:23:25;99533.75;;;18.62;70.58
72548;BME280;60570;50.848;6.776;2023-07-28T02:24:26;99536.56;;;18.62;70.64
72548;BME280;60570;50.848;6.776;2023-07-28T02:25:28;99535.75;;;18.61;70.75
72548;BME280;60570;50.848;6.776;2023-07-28T02:26:28;99538.19;;;18.63;70.61
72548;BME280;60570;50.848;6.776;2023-07-28T02:27:29;99537.38;;;18.62;70.49
72548;BME280;60570;50.848;6.776;2023-07-28T02:28:32;99532.94;;;18.61;70.81
72548;BME280;60570;50.848;6.776;2023-07-28T02:29:32;99541.00;;;18.63;70.71
72548;BME280;60570;50.848;6.776;2023-07-28T02:30:34;99542.19;;;18.62;70.76
72548;BME280;60570;50.848;6.776;2023-07-28T02:31:34;99543.00;;;18.62;70.82
72548;BME280;60570;50.848;6.776;2023-07-28T02:32:36;99539.38;;;18.62;71.02
72548;BME280;60570;50.848;6.776;2023-07-28T02:33:37;99543.00;;;18.62;70.84
72548;BME280;60570;50.848;6.776;2023-07-28T02:34:38;99540.19;;;18.62;70.82
72548;BME280;60570;50.848;6.776;2023-07-28T02:35:39;99544.19;;;18.61;71.02
72548;BME280;60570;50.848;6.776;2023-07-28T02:36:39;99545.00;;;18.62;70.97
72548;BME280;60570;50.848;6.776;2023-07-28T02:37:41;99545.81;;;18.62;70.85
72548;BME280;60570;50.848;6.776;2023-07-28T02:38:42;99542.19;;;18.62;70.96
72548;BME280;60570;50.848;6.776;2023-07-28T02:39:44;99542.19;;;18.62;70.81
72548;BME280;60570;50.848;6.776;2023-07-28T02:40:45;99546.63;;;18.63;70.68
72548;BME280;60570;50.848;6.776;2023-07-28T02:41:46;99537.75;;;18.64;70.77
72548;BME280;60570;50.848;6.776;2023-07-28T02:42:47;99545.41;;;18.64;70.54
72548;BME280;60570;50.848;6.776;2023-07-28T02:43:50;99545.41;;;18.64;70.81
72548;BME280;60570;50.848;6.776;2023-07-28T02:44:50;99537.38;;;18.62;70.83
72548;BME280;60570;50.848;6.776;2023-07-28T02:45:53;99543.00;;;18.62;70.68
72548;BME280;60570;50.848;6.776;2023-07-28T02:46:54;99538.97;;;18.63;70.78
72548;BME280;60570;50.848;6.776;2023-07-28T02:47:55;99548.22;;;18.64;70.85
72548;BME280;60570;50.848;6.776;2023-07-28T02:48:57;99533.75;;;18.62;71.01
72548;BME280;60570;50.848;6.776;2023-07-28T02:49:57;99548.22;;;18.64;70.75
72548;BME280;60570;50.848;6.776;2023-07-28T02:51:00;99548.63;;;18.62;70.63
72548;BME280;60570;50.848;6.776;2023-07-28T02:52:10;99543.81;;;18.63;70.63
72548;BME280;60570;50.848;6.776;2023-07-28T02:53:10;99544.19;;;18.61;70.96
72548;BME280;60570;50.848;6.776;2023-07-28T02:54:12;99544.19;;;18.61;71.04
72548;BME280;60570;50.848;6.776;2023-07-28T02:55:12;99547.44;;;18.60;70.77
72548;BME280;60570;50.848;6.776;2023-07-28T02:56:14;99549.03;;;18.61;70.76
72548;BME280;60570;50.848;6.776;2023-07-28T02:57:14;99554.66;;;18.61;70.89
72548;BME280;60570;50.848;6.776;2023-07-28T02:58:16;99550.22;;;18.63;70.64
72548;BME280;60570;50.848;6.776;2023-07-28T02:59:18;99543.81;;;18.63;70.74
72548;BME280;60570;50.848;6.776;2023-07-28T03:00:22;99549.44;;;18.63;70.93
72548;BME280;60570;50.848;6.776;2023-07-28T03:01:22;99551.44;;;18.62;71.01
72548;BME280;60570;50.848;6.776;2023-07-28T03:02:24;99552.63;;;18.61;71.01
72548;BME280;60570;50.848;6.776;2023-07-28T03:03:24;99556.25;;;18.62;70.81
72548;BME280;60570;50.848;6.776;2023-07-28T03:04:26;99551.44;;;18.62;70.81
72548;BME280;60570;50.848;6.776;2023-07-28T03:05:26;99552.25;;;18.63;70.69
72548;BME280;60570;50.848;6.776;2023-07-28T03:06:28;99553.03;;;18.63;70.68
72548;BME280;60570;50.848;6.776;2023-07-28T03:07:28;99550.22;;;18.63;70.82
72548;BME280;60570;50.848;6.776;2023-07-28T03:08:30;99556.25;;;18.62;70.81
72548;BME280;60570;50.848;6.776;2023-07-28T03:09:31;99561.06;;;18.61;71.03
72548;BME280;60570;50.848;6.776;2023-07-28T03:10:32;99558.25;;;18.61;70.98
72548;BME280;60570;50.848;6.776;2023-07-28T03:11:33;99560.69;;;18.63;70.73
72548;BME280;60570;50.848;6.776;2023-07-28T03:12:34;99553.44;;;18.62;70.79
72548;BME280;60570;50.848;6.776;2023-07-28T03:13:35;99561.88;;;18.62;70.97
72548;BME280;60570;50.848;6.776;2023-07-28T03:14:38;99558.25;;;18.61;70.66
72548;BME280;60570;50.848;6.776;2023-07-28T03:15:39;99557.06;;;18.62;70.83
72548;BME280;60570;50.848;6.776;2023-07-28T03:16:40;99558.25;;;18.61;70.79
72548;BME280;60570;50.848;6.776;2023-07-28T03:17:41;99555.06;;;18.63;70.68
72548;BME280;60570;50.848;6.776;2023-07-28T03:18:42;99557.03;;;18.66;70.59
72548;BME280;60570;50.848;6.776;2023-07-28T03:19:43;99564.66;;;18.65;70.86
72548;BME280;60570;50.848;6.776;2023-07-28T03:20:45;99559.03;;;18.65;70.56
72548;BME280;60570;50.848;6.776;2023-07-28T03:21:46;99553.41;;;18.65;70.61
72548;BME280;60570;50.848;6.776;2023-07-28T03:22:47;99557.47;;;18.64;70.59
72548;BME280;60570;50.848;6.776;2023-07-28T03:23:48;99559.88;;;18.62;70.45
72548;BME280;60570;50.848;6.776;2023-07-28T03:24:49;99557.88;;;18.63;70.63
72548;BME280;60570;50.848;6.776;2023-07-28T03:25:50;99557.88;;;18.63;70.59
72548;BME280;60570;50.848;6.776;2023-07-28T03:26:51;99559.47;;;18.64;70.76
72548;BME280;60570;50.848;6.776;2023-07-28T03:27:52;99558.25;;;18.61;70.75
72548;BME280;60570;50.848;6.776;2023-07-28T03:28:53;99560.31;;;18.61;70.67
72548;BME280;60570;50.848;6.776;2023-07-28T03:29:55;99562.31;;;18.60;70.91
72548;BME280;60570;50.848;6.776;2023-07-28T03:30:56;99566.31;;;18.59;70.86
72548;BME280;60570;50.848;6.776;2023-07-28T03:31:58;99564.72;;;18.58;70.65
72548;BME280;60570;50.848;6.776;2023-07-28T03:32:58;99561.09;;;18.58;70.81
72548;BME280;60570;50.848;6.776;2023-07-28T03:34:00;99558.25;;;18.61;70.74
72548;BME280;60570;50.848;6.776;2023-07-28T03:35:00;99565.94;;;18.61;70.83
72548;BME280;60570;50.848;6.776;2023-07-28T03:36:02;99564.31;;;18.60;70.78
72548;BME280;60570;50.848;6.776;2023-07-28T03:37:02;99565.13;;;18.60;70.59
72548;BME280;60570;50.848;6.776;2023-07-28T03:38:04;99569.53;;;18.61;70.47
72548;BME280;60570;50.848;6.776;2023-07-28T03:39:05;99572.72;;;18.63;70.32
72548;BME280;60570;50.848;6.776;2023-07-28T03:40:07;99568.31;;;18.62;70.64
72548;BME280;60570;50.848;6.776;2023-07-28T03:41:07;99569.53;;;18.61;70.44
72548;BME280;60570;50.848;6.776;2023-07-28T03:42:08;99568.75;;;18.61;70.81
72548;BME280;60570;50.848;6.776;2023-07-28T03:43:10;99571.94;;;18.59;70.67
72548;BME280;60570;50.848;6.776;2023-07-28T03:44:10;99573.56;;;18.60;70.48
72548;BME280;60570;50.848;6.776;2023-07-28T03:45:13;99565.13;;;18.60;70.62
72548;BME280;60570;50.848;6.776;2023-07-28T03:46:14;99573.13;;;18.62;70.64
72548;BME280;60570;50.848;6.776;2023-07-28T03:47:16;99572.75;;;18.60;70.70
72548;BME280;60570;50.848;6.776;2023-07-28T03:48:16;99570.75;;;18.60;70.75
72548;BME280;60570;50.848;6.776;2023-07-28T03:49:18;99573.56;;;18.60;70.59
72548;BME280;60570;50.848;6.776;2023-07-28T03:50:19;99574.38;;;18.61;70.90
72548;BME280;60570;50.848;6.776;2023-07-28T03:51:20;99569.94;;;18.60;70.78
72548;BME280;60570;50.848;6.776;2023-07-28T03:52:22;99565.94;;;18.61;70.63
72548;BME280;60570;50.848;6.776;2023-07-28T03:53:24;99575.16;;;18.61;70.44
72548;BME280;60570;50.848;6.776;2023-07-28T03:54:24;99569.53;;;18.61;71.10
72548;BME280;60570;50.848;6.776;2023-07-28T03:55:26;99566.69;;;18.61;70.56
72548;BME280;60570;50.848;6.776;2023-07-28T03:56:26;99570.31;;;18.62;70.38
72548;BME280;60570;50.848;6.776;2023-07-28T03:57:29;99564.31;;;18.60;70.72
72548;BME280;60570;50.848;6.776;2023-07-28T03:58:29;99567.13;;;18.60;70.85
72548;BME280;60570;50.848;6.776;2023-07-28T03:59:31;99565.13;;;18.60;70.90
72548;BME280;60570;50.848;6.776;2023-07-28T04:00:33;99572.75;;;18.60;70.95
72548;BME280;60570;50.848;6.776;2023-07-28T04:01:34;99578.38;;;18.60;70.81
72548;BME280;60570;50.848;6.776;2023-07-28T04:02:35;99573.97;;;18.59;70.95
72548;BME280;60570;50.848;6.776;2023-07-28T04:03:36;99573.56;;;18.60;70.85
72548;BME280;60570;50.848;6.776;2023-07-28T04:04:38;99568.31;;;18.62;70.80
72548;BME280;60570;50.848;6.776;2023-07-28T04:05:39;99569.91;;;18.63;70.52
72548;BME280;60570;50.848;6.776;2023-07-28T04:06:41;99571.94;;;18.63;70.97
72548;BME280;60570;50.848;6.776;2023-07-28T04:07:43;99571.56;;;18.61;70.89
72548;BME280;60570;50.848;6.776;2023-07-28T04:08:43;99573.56;;;18.60;70.86
72548;BME280;60570;50.848;6.776;2023-07-28T04:09:47;99572.75;;;18.60;70.93
72548;BME280;60570;50.848;6.776;2023-07-28T04:10:47;99562.31;;;18.60;70.59
72548;BME280;60570;50.848;6.776;2023-07-28T04:11:49;99562.72;;;18.59;70.94
72548;BME280;60570;50.848;6.776;2023-07-28T04:12:49;99562.72;;;18.59;70.83
72548;BME280;60570;50.848;6.776;2023-07-28T04:13:51;99567.53;;;18.58;71.08
72548;BME280;60570;50.848;6.776;2023-07-28T04:14:52;99561.91;;;18.58;70.73
72548;BME280;60570;50.848;6.776;2023-07-28T04:15:55;99570.34;;;18.58;70.77
72548;BME280;60570;50.848;6.776;2023-07-28T04:16:55;99563.50;;;18.59;70.78
72548;BME280;60570;50.848;6.776;2023-07-28T04:17:57;99565.13;;;18.60;70.82
72548;BME280;60570;50.848;6.776;2023-07-28T04:18:58;99569.13;;;18.59;70.82
72548;BME280;60570;50.848;6.776;2023-07-28T04:20:00;99567.53;;;18.58;70.90
72548;BME280;60570;50.848;6.776;2023-07-28T04:21:00;99569.13;;;18.59;70.53
72548;BME280;60570;50.848;6.776;2023-07-28T04:22:02;99566.31;;;18.59;70.71
72548;BME280;60570;50.848;6.776;2023-07-28T04:23:03;99571.94;;;18.59;70.63
72548;BME280;60570;50.848;6.776;2023-07-28T04:24:05;99579.19;;;18.60;70.76
72548;BME280;60570;50.848;6.776;2023-07-28T04:25:06;99574.75;;;18.59;70.73
72548;BME280;60570;50.848;6.776;2023-07-28T04:26:08;99572.75;;;18.60;70.46
72548;BME280;60570;50.848;6.776;2023-07-28T04:27:08;99581.19;;;18.60;70.67
72548;BME280;60570;50.848;6.776;2023-07-28T04:28:09;99572.75;;;18.60;70.78
72548;BME280;60570;50.848;6.776;2023-07-28T04:29:10;99579.59;;;18.59;70.95
72548;BME280;60570;50.848;6.776;2023-07-28T04:30:11;99574.75;;;18.59;70.72
72548;BME280;60570;50.848;6.776;2023-07-28T04:31:14;99570.34;;;18.58;70.87
72548;BME280;60570;50.848;6.776;2023-07-28T04:32:15;99575.16;;;18.61;70.81
72548;BME280;60570;50.848;6.776;2023-07-28T04:33:16;99582.00;;;18.60;71.03
72548;BME280;60570;50.848;6.776;2023-07-28T04:34:17;99578.78;;;18.58;70.71
72548;BME280;60570;50.848;6.776;2023-07-28T04:35:18;99579.59;;;18.59;70.60
72548;BME280;60570;50.848;6.776;2023-07-28T04:36:22;99577.22;;;18.57;70.70
72548;BME280;60570;50.848;6.776;2023-07-28T04:37:22;99575.97;;;18.58;70.87
72548;BME280;60570;50.848;6.776;2023-07-28T04:38:23;99582.84;;;18.57;70.77
72548;BME280;60570;50.848;6.776;2023-07-28T04:39:26;99580.81;;;18.58;70.67
72548;BME280;60570;50.848;6.776;2023-07-28T04:40:26;99581.22;;;18.56;70.77
72548;BME280;60570;50.848;6.776;2023-07-28T04:41:28;99584.03;;;18.56;70.62
72548;BME280;60570;50.848;6.776;2023-07-28T04:42:28;99584.03;;;18.56;70.81
72548;BME280;60570;50.848;6.776;2023-07-28T04:43:30;99595.28;;;18.56;70.58
72548;BME280;60570;50.848;6.776;2023-07-28T04:44:30;99593.28;;;18.57;70.65
72548;BME280;60570;50.848;6.776;2023-07-28T04:45:32;99591.28;;;18.57;70.59
72548;BME280;60570;50.848;6.776;2023-07-28T04:46:34;99587.66;;;18.57;70.49
72548;BME280;60570;50.848;6.776;2023-07-28T04:47:35;99589.25;;;18.58;70.65
72548;BME280;60570;50.848;6.776;2023-07-28T04:48:36;99591.66;;;18.56;70.74
72548;BME280;60570;50.848;6.776;2023-07-28T04:49:38;99589.66;;;18.56;70.77
72548;BME280;60570;50.848;6.776;2023-07-28T04:50:40;99585.25;;;18.55;70.68
72548;BME280;60570;50.848;6.776;2023-07-28T04:51:42;99587.66;;;18.57;70.40
72548;BME280;60570;50.848;6.776;2023-07-28T04:52:42;99594.09;;;18.57;70.75
72548;BME280;60570;50.848;6.776;2023-07-28T04:53:44;99596.09;;;18.57;70.69
72548;BME280;60570;50.848;6.776;2023-07-28T04:54:44;99586.84;;;18.56;70.71
72548;BME280;60570;50.848;6.776;2023-07-28T04:55:46;99592.47;;;18.56;70.58
72548;BME280;60570;50.848;6.776;2023-07-28T04:56:46;99598.09;;;18.56;70.61
72548;BME280;60570;50.848;6.776;2023-07-28T04:57:50;99592.88;;;18.55;70.57
72548;BME280;60570;50.848;6.776;2023-07-28T04:58:50;99595.28;;;18.56;70.43
72548;BME280;60570;50.848;6.776;2023-07-28T04:59:52;99598.91;;;18.57;70.47
72548;BME280;60570;50.848;6.776;2023-07-28T05:00:53;99596.09;;;18.57;70.74
72548;BME280;60570;50.848;6.776;2023-07-28T05:01:56;99598.91;;;18.57;70.77
72548;BME280;60570;50.848;6.776;2023-07-28T05:02:56;99600.91;;;18.56;70.62
72548;BME280;60570;50.848;6.776;2023-07-28T05:03:58;99595.28;;;18.56;70.75
72548;BME280;60570;50.848;6.776;2023-07-28T05:04:58;99598.91;;;18.57;70.58
72548;BME280;60570;50.848;6.776;2023-07-28T05:06:02;99593.28;;;18.57;71.01
72548;BME280;60570;50.848;6.776;2023-07-28T05:07:03;99599.72;;;18.57;71.03
72548;BME280;60570;50.848;6.776;2023-07-28T05:08:05;99592.47;;;18.56;70.92
72548;BME280;60570;50.848;6.776;2023-07-28T05:09:05;99595.28;;;18.56;71.17
72548;BME280;60570;50.848;6.776;2023-07-28T05:10:07;99600.91;;;18.56;70.97
72548;BME280;60570;50.848;6.776;2023-07-28T05:11:08;99599.28;;;18.59;70.86
72548;BME280;60570;50.848;6.776;2023-07-28T05:12:09;99595.69;;;18.58;70.82
72548;BME280;60570;50.848;6.776;2023-07-28T05:13:10;99602.88;;;18.59;70.74
72548;BME280;60570;50.848;6.776;2023-07-28T05:14:11;99601.31;;;18.58;71.05
72548;BME280;60570;50.848;6.776;2023-07-28T05:15:13;99601.72;;;18.57;70.67
72548;BME280;60570;50.848;6.776;2023-07-28T05:16:14;99602.53;;;18.57;70.88
72548;BME280;60570;50.848;6.776;2023-07-28T05:17:16;99611.31;;;18.59;70.81
72548;BME280;60570;50.848;6.776;2023-07-28T05:18:18;99609.31;;;18.60;70.62
72548;BME280;60570;50.848;6.776;2023-07-28T05:19:18;99606.50;;;18.60;70.84
72548;BME280;60570;50.848;6.776;2023-07-28T05:20:20;99611.72;;;18.61;70.62
72548;BME280;60570;50.848;6.776;2023-07-28T05:21:20;99606.50;;;18.60;71.00
72548;BME280;60570;50.848;6.776;2023-07-28T05:22:22;99605.69;;;18.59;70.62
72548;BME280;60570;50.848;6.776;2023-07-28T05:23:23;99608.94;;;18.58;70.74
72548;BME280;60570;50.848;6.776;2023-07-28T05:24:25;99606.13;;;18.58;71.06
72548;BME280;60570;50.848;6.776;2023-07-28T05:25:26;99611.75;;;18.58;70.81